createdAt,value
2023-05-01T00:00:27.644Z,4.60
2023-05-01T00:01:28.350Z,4.30
2023-05-01T00:02:29.622Z,4.60
2023-05-01T00:03:29.978Z,4.10
2023-05-01T00:04:30.705Z,4.60
2023-05-01T00:05:31.402Z,4.00
2023-05-01T00:06:32.229Z,4.40
2023-05-01T00:07:33.021Z,4.40
2023-05-01T00:08:33.731Z,4.90
2023-05-01T00:09:34.433Z,4.70
2023-05-01T00:10:35.136Z,4.80
2023-05-01T00:11:35.847Z,4.90
2023-05-01T00:12:37.024Z,4.70
2023-05-01T00:13:37.221Z,4.40
2023-05-01T00:14:37.949Z,4.50
2023-05-01T00:15:38.634Z,4.90
2023-05-01T00:16:39.400Z,4.70
2023-05-01T00:17:40.557Z,5.30
2023-05-01T00:18:40.763Z,5.20
2023-05-01T00:19:41.465Z,5.00
2023-05-01T00:20:42.166Z,4.90
2023-05-01T00:21:42.871Z,4.70
2023-05-01T00:22:44.029Z,4.90
2023-05-01T00:23:44.226Z,5.30
2023-05-01T00:24:44.929Z,4.90
2023-05-01T00:25:45.630Z,4.70
2023-05-01T00:26:46.346Z,5.30
2023-05-01T00:27:47.530Z,5.10
2023-05-01T00:28:47.750Z,5.30
2023-05-01T00:29:48.462Z,5.00
2023-05-01T00:30:49.155Z,5.20
2023-05-01T00:31:49.896Z,5.10
2023-05-01T00:32:51.601Z,5.20
2023-05-01T00:33:51.245Z,4.80
2023-05-01T00:34:51.950Z,5.00
2023-05-01T00:35:52.659Z,4.90
2023-05-01T00:36:53.371Z,5.30
2023-05-01T00:37:54.524Z,5.00
2023-05-01T00:38:54.733Z,4.90
2023-05-01T00:39:55.632Z,5.10
2023-05-01T00:40:55.977Z,5.40
2023-05-01T00:41:56.674Z,4.90
2023-05-01T00:42:57.549Z,5.00
2023-05-01T00:43:58.256Z,4.90
2023-05-01T00:44:58.972Z,5.40
2023-05-01T00:45:59.677Z,4.90
2023-05-01T00:47:00.370Z,5.20
2023-05-01T00:48:01.651Z,5.20
2023-05-01T00:49:01.791Z,4.90
2023-05-01T00:50:02.498Z,4.70
2023-05-01T00:51:03.214Z,5.20
2023-05-01T00:52:03.934Z,5.00
2023-05-01T00:53:05.037Z,5.00
2023-05-01T00:54:05.254Z,5.20
2023-05-01T00:55:05.965Z,5.00
2023-05-01T00:56:06.650Z,5.20
2023-05-01T00:57:07.355Z,5.10
2023-05-01T00:58:08.527Z,5.30
2023-05-01T00:59:08.735Z,4.60
2023-05-01T01:00:09.468Z,5.00
2023-05-01T01:01:10.234Z,4.60
2023-05-01T01:02:10.919Z,4.90
2023-05-01T01:03:12.047Z,4.50
2023-05-01T01:04:12.254Z,5.10
2023-05-01T01:05:12.960Z,5.00
2023-05-01T01:06:13.714Z,4.80
2023-05-01T01:07:14.376Z,4.80
2023-05-01T01:08:15.537Z,5.30
2023-05-01T01:09:15.757Z,4.80
2023-05-01T01:10:16.442Z,5.10
2023-05-01T01:11:17.149Z,4.90
2023-05-01T01:12:17.864Z,5.20
2023-05-01T01:13:19.023Z,5.50
2023-05-01T01:14:19.248Z,5.10
2023-05-01T01:15:19.992Z,5.50
2023-05-01T01:16:20.698Z,5.40
2023-05-01T01:17:21.375Z,5.50
2023-05-01T01:18:22.547Z,5.30
2023-05-01T01:19:22.722Z,5.30
2023-05-01T01:20:23.448Z,5.10
2023-05-01T01:21:24.132Z,5.10
2023-05-01T01:22:24.849Z,4.90
2023-05-01T01:23:26.029Z,5.20
2023-05-01T01:24:26.233Z,5.80
2023-05-01T01:25:26.941Z,5.10
2023-05-01T01:26:27.644Z,5.30
2023-05-01T01:27:28.379Z,5.30
2023-05-01T01:28:29.526Z,4.90
2023-05-01T01:29:29.734Z,4.90
2023-05-01T01:30:30.461Z,4.80
2023-05-01T01:31:31.174Z,4.80
2023-05-01T01:32:31.892Z,4.80
2023-05-01T01:33:33.072Z,4.70
2023-05-01T01:34:33.235Z,5.10
2023-05-01T01:35:33.941Z,4.60
2023-05-01T01:36:34.660Z,5.20
2023-05-01T01:37:35.353Z,5.00
2023-05-01T01:38:36.534Z,4.80
2023-05-01T01:39:36.738Z,4.90
2023-05-01T01:40:37.450Z,5.10
2023-05-01T01:41:38.157Z,5.00
2023-05-01T01:42:38.873Z,5.30
2023-05-01T01:43:40.049Z,5.60
2023-05-01T01:44:40.259Z,5.00
2023-05-01T01:45:40.975Z,4.90
2023-05-01T01:46:41.706Z,5.10
2023-05-01T01:47:42.477Z,4.90
2023-05-01T01:48:43.567Z,4.60
2023-05-01T01:49:43.742Z,5.70
2023-05-01T01:50:44.445Z,4.90
2023-05-01T01:51:45.153Z,4.90
2023-05-01T01:52:45.854Z,5.20
2023-05-01T01:53:47.033Z,4.80
2023-05-01T01:54:47.247Z,5.30
2023-05-01T01:55:47.953Z,5.20
2023-05-01T01:56:48.658Z,5.00
2023-05-01T01:57:49.359Z,4.40
2023-05-01T01:58:50.547Z,5.30
2023-05-01T01:59:50.751Z,4.90
2023-05-01T02:00:51.472Z,5.00
2023-05-01T02:01:52.181Z,5.20
2023-05-01T02:02:53.027Z,4.70
2023-05-01T02:03:54.320Z,5.20
2023-05-01T02:04:54.560Z,4.60
2023-05-01T02:05:55.247Z,4.60
2023-05-01T02:06:55.960Z,4.90
2023-05-01T02:07:56.662Z,4.70
2023-05-01T02:08:57.536Z,4.60
2023-05-01T02:09:58.447Z,4.80
2023-05-01T02:11:00.896Z,4.30
2023-05-01T02:11:59.529Z,4.70
2023-05-01T02:13:00.226Z,4.50
2023-05-01T02:14:01.056Z,4.30
2023-05-01T02:15:01.753Z,4.60
2023-05-01T02:16:02.479Z,4.60
2023-05-01T02:17:03.151Z,4.40
2023-05-01T02:18:03.905Z,4.40
2023-05-01T02:19:05.056Z,4.70
2023-05-01T02:20:05.252Z,4.70
2023-05-01T02:21:05.949Z,4.70
2023-05-01T02:22:06.663Z,5.10
2023-05-01T02:23:07.373Z,4.70
2023-05-01T02:24:08.542Z,4.50
2023-05-01T02:25:08.743Z,4.70
2023-05-01T02:26:09.450Z,4.30
2023-05-01T02:27:10.155Z,4.30
2023-05-01T02:28:10.863Z,4.80
2023-05-01T02:29:12.039Z,4.50
2023-05-01T02:30:12.247Z,5.00
2023-05-01T02:31:13.018Z,4.70
2023-05-01T02:32:13.665Z,5.10
2023-05-01T02:33:14.368Z,4.60
2023-05-01T02:34:15.559Z,5.40
2023-05-01T02:35:15.748Z,5.20
2023-05-01T02:36:16.455Z,5.30
2023-05-01T02:37:17.159Z,5.10
2023-05-01T02:38:17.873Z,4.80
2023-05-01T02:39:19.050Z,4.80
2023-05-01T02:40:19.258Z,5.40
2023-05-01T02:41:19.962Z,5.80
2023-05-01T02:42:20.672Z,4.90
2023-05-01T02:43:21.493Z,4.70
2023-05-01T02:44:22.574Z,5.00
2023-05-01T02:45:22.787Z,5.10
2023-05-01T02:46:23.646Z,5.30
2023-05-01T02:47:24.484Z,4.80
2023-05-01T02:48:25.167Z,5.00
2023-05-01T02:49:26.067Z,5.40
2023-05-01T02:50:26.743Z,5.20
2023-05-01T02:51:27.445Z,5.00
2023-05-01T02:52:28.151Z,5.10
2023-05-01T02:53:28.854Z,4.90
2023-05-01T02:54:30.043Z,4.40
2023-05-01T02:55:30.256Z,5.00
2023-05-01T02:56:30.956Z,4.80
2023-05-01T02:57:31.658Z,4.70
2023-05-01T02:58:32.369Z,4.70
2023-05-01T02:59:33.544Z,4.90
2023-05-01T03:00:33.752Z,4.90
2023-05-01T03:01:34.512Z,4.80
2023-05-01T03:02:35.196Z,4.80
2023-05-01T03:03:35.862Z,5.20
2023-05-01T03:04:37.270Z,4.70
2023-05-01T03:05:37.533Z,4.70
2023-05-01T03:06:38.297Z,4.30
2023-05-01T03:07:38.970Z,4.50
2023-05-01T03:08:39.682Z,4.40
2023-05-01T03:09:40.545Z,4.00
2023-05-01T03:10:41.259Z,4.90
2023-05-01T03:11:41.974Z,4.40
2023-05-01T03:12:42.679Z,4.70
2023-05-01T03:13:43.393Z,4.40
2023-05-01T03:14:44.554Z,4.40
2023-05-01T03:15:44.750Z,4.40
2023-05-01T03:16:45.815Z,4.30
2023-05-01T03:17:46.128Z,4.50
2023-05-01T03:18:46.793Z,4.30
2023-05-01T03:19:47.562Z,4.40
2023-05-01T03:20:48.250Z,4.20
2023-05-01T03:21:48.962Z,4.30
2023-05-01T03:22:49.659Z,4.50
2023-05-01T03:23:50.364Z,4.20
2023-05-01T03:24:51.553Z,4.60
2023-05-01T03:25:51.752Z,4.60
2023-05-01T03:26:52.462Z,4.40
2023-05-01T03:27:55.102Z,4.20
2023-05-01T03:28:54.014Z,4.40
2023-05-01T03:29:55.252Z,4.70
2023-05-01T03:30:55.685Z,4.20
2023-05-01T03:31:56.432Z,4.30
2023-05-01T03:32:57.152Z,4.50
2023-05-01T03:33:57.845Z,4.90
2023-05-01T03:34:59.086Z,4.30
2023-05-01T03:35:59.230Z,4.50
2023-05-01T03:36:59.931Z,4.30
2023-05-01T03:38:00.640Z,4.50
2023-05-01T03:39:01.346Z,4.20
2023-05-01T03:40:02.545Z,4.40
2023-05-01T03:41:02.748Z,4.20
2023-05-01T03:42:03.454Z,4.70
2023-05-01T03:43:04.164Z,4.50
2023-05-01T03:44:04.865Z,4.60
2023-05-01T03:45:06.052Z,4.50
2023-05-01T03:46:06.305Z,4.50
2023-05-01T03:47:06.987Z,4.60
2023-05-01T03:48:07.690Z,4.20
2023-05-01T03:49:08.385Z,4.70
2023-05-01T03:50:09.564Z,4.30
2023-05-01T03:51:09.747Z,4.90
2023-05-01T03:52:10.464Z,4.40
2023-05-01T03:53:11.180Z,4.10
2023-05-01T03:54:11.863Z,4.50
2023-05-01T03:55:13.045Z,4.50
2023-05-01T03:56:13.257Z,4.20
2023-05-01T03:57:13.958Z,4.40
2023-05-01T03:58:14.675Z,4.50
2023-05-01T03:59:15.381Z,4.20
2023-05-01T04:00:16.550Z,4.60
2023-05-01T04:01:16.755Z,4.50
2023-05-01T04:02:17.527Z,4.40
2023-05-01T04:03:18.257Z,4.70
2023-05-01T04:04:18.985Z,4.40
2023-05-01T04:05:20.065Z,4.90
2023-05-01T04:06:20.247Z,4.30
2023-05-01T04:07:20.946Z,4.50
2023-05-01T04:08:21.650Z,4.40
2023-05-01T04:09:22.353Z,4.50
2023-05-01T04:10:23.547Z,4.50
2023-05-01T04:11:23.753Z,4.50
2023-05-01T04:12:24.457Z,4.60
2023-05-01T04:13:25.184Z,4.10
2023-05-01T04:14:25.875Z,4.50
2023-05-01T04:15:27.071Z,4.00
2023-05-01T04:16:27.295Z,4.90
2023-05-01T04:17:27.975Z,4.60
2023-05-01T04:18:28.663Z,4.70
2023-05-01T04:19:29.370Z,4.40
2023-05-01T04:20:30.568Z,4.50
2023-05-01T04:21:30.743Z,4.60
2023-05-01T04:22:31.457Z,4.10
2023-05-01T04:23:32.152Z,4.30
2023-05-01T04:24:32.862Z,4.20
2023-05-01T04:25:34.076Z,4.00
2023-05-01T04:26:34.260Z,4.00
2023-05-01T04:27:34.958Z,4.00
2023-05-01T04:28:35.666Z,4.30
2023-05-01T04:29:36.369Z,4.30
2023-05-01T04:30:37.557Z,4.10
2023-05-01T04:31:37.785Z,4.30
2023-05-01T04:32:38.570Z,4.00
2023-05-01T04:33:39.224Z,4.60
2023-05-01T04:34:39.925Z,4.50
2023-05-01T04:35:41.090Z,4.30
2023-05-01T04:36:41.224Z,4.00
2023-05-01T04:37:41.932Z,4.50
2023-05-01T04:38:42.651Z,4.40
2023-05-01T04:39:43.340Z,4.40
2023-05-01T04:40:44.547Z,4.20
2023-05-01T04:41:44.757Z,4.20
2023-05-01T04:42:45.458Z,4.10
2023-05-01T04:43:46.164Z,4.70
2023-05-01T04:44:46.870Z,4.00
2023-05-01T04:45:48.061Z,4.10
2023-05-01T04:46:48.308Z,4.10
2023-05-01T04:47:49.008Z,4.40
2023-05-01T04:48:49.680Z,4.60
2023-05-01T04:49:50.382Z,4.00
2023-05-01T04:50:51.579Z,4.10
2023-05-01T04:51:51.762Z,4.60
2023-05-01T04:52:52.469Z,4.60
2023-05-01T04:53:53.170Z,4.30
2023-05-01T04:54:53.875Z,4.40
2023-05-01T04:55:55.056Z,4.20
2023-05-01T04:56:55.253Z,4.10
2023-05-01T04:57:55.962Z,4.00
2023-05-01T04:58:56.662Z,4.00
2023-05-01T04:59:57.897Z,4.50
2023-05-01T05:00:58.547Z,4.60
2023-05-01T05:01:59.286Z,4.60
2023-05-01T05:03:00.030Z,4.60
2023-05-01T05:04:01.023Z,3.80
2023-05-01T05:05:01.329Z,3.80
2023-05-01T05:06:02.143Z,3.70
2023-05-01T05:07:02.823Z,4.30
2023-05-01T05:08:03.528Z,3.80
2023-05-01T05:09:04.238Z,4.10
2023-05-01T05:10:04.936Z,4.10
2023-05-01T05:11:06.051Z,4.10
2023-05-01T05:12:06.259Z,4.00
2023-05-01T05:13:06.961Z,4.40
2023-05-01T05:14:07.663Z,4.30
2023-05-01T05:15:08.372Z,4.00
2023-05-01T05:16:09.602Z,4.50
2023-05-01T05:17:09.805Z,3.90
2023-05-01T05:18:10.579Z,3.60
2023-05-01T05:19:11.266Z,4.10
2023-05-01T05:20:11.989Z,4.20
2023-05-01T05:21:13.265Z,4.10
2023-05-01T05:22:13.422Z,4.00
2023-05-01T05:23:14.104Z,3.80
2023-05-01T05:24:14.811Z,4.20
2023-05-01T05:25:15.514Z,3.90
2023-05-01T05:26:16.556Z,4.10
2023-05-01T05:27:16.762Z,3.80
2023-05-01T05:28:17.466Z,4.10
2023-05-01T05:29:18.163Z,4.10
2023-05-01T05:30:18.879Z,4.00
2023-05-01T05:31:20.048Z,4.10
2023-05-01T05:32:20.391Z,4.40
2023-05-01T05:33:21.189Z,4.10
2023-05-01T05:34:21.882Z,3.90
2023-05-01T05:35:22.588Z,3.90
2023-05-01T05:36:23.580Z,3.90
2023-05-01T05:37:24.279Z,3.90
2023-05-01T05:38:24.968Z,4.00
2023-05-01T05:39:25.673Z,4.00
2023-05-01T05:40:26.384Z,4.10
2023-05-01T05:41:27.560Z,3.60
2023-05-01T05:42:27.771Z,3.80
2023-05-01T05:43:28.471Z,3.40
2023-05-01T05:44:29.175Z,3.90
2023-05-01T05:45:29.892Z,3.50
2023-05-01T05:46:31.145Z,3.60
2023-05-01T05:47:31.284Z,3.60
2023-05-01T05:48:32.009Z,3.80
2023-05-01T05:49:32.712Z,3.70
2023-05-01T05:50:33.406Z,3.70
2023-05-01T05:51:34.573Z,3.60
2023-05-01T05:52:34.762Z,3.80
2023-05-01T05:53:35.468Z,4.00
2023-05-01T05:54:36.178Z,3.80
2023-05-01T05:55:36.893Z,4.10
2023-05-01T05:56:38.089Z,3.80
2023-05-01T05:57:38.264Z,3.80
2023-05-01T05:58:39.013Z,4.10
2023-05-01T05:59:39.716Z,3.80
2023-05-01T06:00:40.424Z,4.60
2023-05-01T06:01:41.557Z,4.10
2023-05-01T06:02:41.852Z,4.00
2023-05-01T06:03:42.672Z,4.20
2023-05-01T06:04:43.355Z,4.80
2023-05-01T06:05:44.197Z,4.50
2023-05-01T06:06:45.109Z,4.40
2023-05-01T06:07:45.750Z,4.50
2023-05-01T06:08:46.466Z,4.60
2023-05-01T06:09:47.176Z,4.60
2023-05-01T06:10:47.868Z,4.60
2023-05-01T06:11:49.072Z,4.80
2023-05-01T06:12:52.182Z,4.80
2023-05-01T06:13:51.371Z,4.50
2023-05-01T06:14:51.072Z,4.40
2023-05-01T06:15:51.821Z,4.50
2023-05-01T06:16:52.563Z,4.70
2023-05-01T06:17:53.323Z,4.50
2023-05-01T06:18:54.242Z,4.40
2023-05-01T06:19:55.204Z,4.60
2023-05-01T06:20:55.645Z,4.40
2023-05-01T06:21:56.624Z,4.40
2023-05-01T06:22:57.267Z,4.40
2023-05-01T06:23:57.973Z,4.60
2023-05-01T06:24:58.677Z,4.50
2023-05-01T06:25:59.394Z,4.50
2023-05-01T06:27:01.530Z,4.50
2023-05-01T06:28:00.780Z,4.80
2023-05-01T06:29:01.497Z,4.50
2023-05-01T06:30:02.194Z,4.60
2023-05-01T06:31:02.919Z,4.40
2023-05-01T06:32:04.073Z,4.40
2023-05-01T06:33:04.355Z,4.40
2023-05-01T06:34:05.032Z,4.60
2023-05-01T06:35:05.712Z,4.90
2023-05-01T06:36:06.417Z,4.60
2023-05-01T06:37:07.575Z,4.50
2023-05-01T06:38:07.755Z,4.50
2023-05-01T06:39:08.427Z,4.50
2023-05-01T06:40:09.146Z,4.50
2023-05-01T06:41:09.846Z,5.00
2023-05-01T06:42:10.562Z,4.60
2023-05-01T06:43:11.268Z,4.60
2023-05-01T06:44:11.978Z,4.90
2023-05-01T06:45:12.683Z,4.90
2023-05-01T06:46:13.435Z,5.10
2023-05-01T06:47:14.790Z,5.00
2023-05-01T06:48:15.075Z,5.30
2023-05-01T06:49:15.772Z,5.70
2023-05-01T06:50:16.452Z,5.40
2023-05-01T06:51:17.157Z,4.90
2023-05-01T06:52:18.138Z,4.90
2023-05-01T06:53:18.768Z,5.20
2023-05-01T06:54:19.471Z,5.50
2023-05-01T06:55:20.188Z,5.00
2023-05-01T06:56:20.882Z,4.40
2023-05-01T06:57:22.065Z,5.00
2023-05-01T06:58:24.431Z,5.00
2023-05-01T06:59:22.856Z,5.10
2023-05-01T07:00:23.573Z,4.80
2023-05-01T07:01:24.341Z,4.50
2023-05-01T07:02:25.084Z,4.60
2023-05-01T07:03:25.875Z,4.70
2023-05-01T07:04:26.563Z,4.80
2023-05-01T07:05:27.243Z,4.40
2023-05-01T07:06:27.969Z,4.60
2023-05-01T07:07:29.094Z,4.40
2023-05-01T07:08:29.246Z,3.70
2023-05-01T07:09:29.949Z,3.50
2023-05-01T07:10:30.703Z,4.00
2023-05-01T07:11:31.365Z,3.90
2023-05-01T07:12:32.574Z,3.80
2023-05-01T07:13:32.792Z,4.20
2023-05-01T07:14:33.487Z,3.60
2023-05-01T07:15:34.205Z,3.90
2023-05-01T07:16:34.950Z,4.10
2023-05-01T07:17:36.094Z,4.10
2023-05-01T07:18:36.279Z,4.00
2023-05-01T07:19:37.002Z,4.30
2023-05-01T07:20:37.688Z,3.70
2023-05-01T07:21:38.417Z,3.60
2023-05-01T07:22:39.597Z,3.50
2023-05-01T07:23:39.788Z,3.50
2023-05-01T07:24:40.480Z,3.60
2023-05-01T07:25:41.191Z,3.50
2023-05-01T07:26:41.893Z,3.10
2023-05-01T07:27:43.076Z,2.90
2023-05-01T07:28:43.286Z,3.10
2023-05-01T07:29:43.996Z,2.90
2023-05-01T07:30:44.696Z,2.60
2023-05-01T07:31:45.458Z,2.70
2023-05-01T07:32:46.640Z,2.70
2023-05-01T07:33:46.804Z,2.80
2023-05-01T07:34:47.542Z,2.80
2023-05-01T07:35:48.213Z,3.00
2023-05-01T07:36:48.916Z,2.70
2023-05-01T07:37:50.095Z,2.50
2023-05-01T07:38:50.267Z,2.60
2023-05-01T07:39:50.975Z,2.60
2023-05-01T07:40:51.682Z,2.40
2023-05-01T07:41:52.383Z,2.40
2023-05-01T07:42:54.692Z,2.30
2023-05-01T07:43:53.950Z,2.50
2023-05-01T07:44:54.655Z,2.50
2023-05-01T07:45:55.410Z,2.30
2023-05-01T07:46:56.072Z,2.50
2023-05-01T07:47:57.208Z,2.80
2023-05-01T07:48:57.414Z,2.30
2023-05-01T07:49:58.386Z,2.50
2023-05-01T07:50:59.103Z,2.30
2023-05-01T07:51:59.816Z,2.50
2023-05-01T07:53:00.599Z,2.10
2023-05-01T07:54:01.271Z,2.30
2023-05-01T07:55:01.978Z,2.30
2023-05-01T07:56:02.682Z,2.50
2023-05-01T07:57:03.387Z,2.20
2023-05-01T07:58:04.594Z,2.30
2023-05-01T07:59:04.779Z,2.20
2023-05-01T08:00:05.489Z,2.30
2023-05-01T08:01:06.183Z,2.40
2023-05-01T08:02:06.906Z,2.50
2023-05-01T08:03:08.300Z,2.20
2023-05-01T08:04:08.641Z,2.20
2023-05-01T08:05:09.359Z,2.20
2023-05-01T08:06:10.067Z,2.10
2023-05-01T08:07:10.744Z,2.30
2023-05-01T08:08:11.595Z,2.10
2023-05-01T08:09:12.250Z,2.30
2023-05-01T08:10:12.957Z,2.30
2023-05-01T08:11:13.661Z,2.20
2023-05-01T08:12:14.368Z,2.60
2023-05-01T08:13:15.082Z,2.50
2023-05-01T08:14:15.789Z,2.00
2023-05-01T08:15:16.510Z,2.20
2023-05-01T08:16:18.676Z,2.30
2023-05-01T08:17:18.044Z,2.40
2023-05-01T08:18:19.100Z,2.20
2023-05-01T08:19:19.308Z,2.10
2023-05-01T08:20:20.145Z,2.60
2023-05-01T08:21:20.794Z,3.20
2023-05-01T08:22:21.485Z,3.40
2023-05-01T08:23:22.639Z,3.10
2023-05-01T08:24:23.253Z,3.10
2023-05-01T08:25:23.436Z,3.40
2023-05-01T08:26:24.106Z,3.40
2023-05-01T08:27:24.812Z,3.20
2023-05-01T08:28:25.589Z,3.40
2023-05-01T08:29:26.322Z,3.20
2023-05-01T08:30:27.002Z,3.00
2023-05-01T08:31:27.748Z,3.40
2023-05-01T08:32:28.422Z,3.00
2023-05-01T08:33:29.614Z,3.20
2023-05-01T08:34:29.818Z,3.20
2023-05-01T08:35:30.650Z,3.30
2023-05-01T08:36:31.280Z,3.10
2023-05-01T08:37:31.981Z,3.10
2023-05-01T08:38:33.107Z,2.90
2023-05-01T08:39:33.263Z,3.00
2023-05-01T08:40:33.968Z,2.90
2023-05-01T08:41:34.685Z,3.00
2023-05-01T08:42:35.387Z,3.00
2023-05-01T08:43:36.595Z,2.90
2023-05-01T08:44:36.806Z,2.80
2023-05-01T08:45:37.593Z,3.10
2023-05-01T08:46:38.514Z,2.70
2023-05-01T08:47:39.323Z,3.20
2023-05-01T08:48:40.104Z,2.70
2023-05-01T08:49:40.817Z,2.70
2023-05-01T08:50:41.530Z,2.70
2023-05-01T08:51:42.221Z,2.50
2023-05-01T08:52:42.927Z,2.70
2023-05-01T08:53:44.124Z,2.40
2023-05-01T08:54:44.293Z,2.20
2023-05-01T08:55:44.991Z,2.20
2023-05-01T08:56:45.700Z,2.20
2023-05-01T08:57:46.402Z,2.30
2023-05-01T08:58:47.593Z,2.30
2023-05-01T08:59:47.797Z,2.10
2023-05-01T09:00:48.501Z,2.40
2023-05-01T09:01:49.235Z,2.40
2023-05-01T09:02:50.180Z,2.30
2023-05-01T09:03:50.703Z,2.20
2023-05-01T09:04:51.357Z,2.40
2023-05-01T09:05:52.075Z,2.70
2023-05-01T09:06:52.854Z,2.40
2023-05-01T09:07:53.557Z,2.20
2023-05-01T09:08:54.607Z,2.20
2023-05-01T09:09:55.196Z,2.30
2023-05-01T09:10:55.512Z,2.20
2023-05-01T09:11:56.219Z,2.20
2023-05-01T09:12:56.921Z,2.50
2023-05-01T09:13:58.099Z,2.00
2023-05-01T09:14:58.306Z,2.10
2023-05-01T09:15:59.021Z,2.20
2023-05-01T09:16:59.727Z,2.00
2023-05-01T09:18:03.248Z,2.10
2023-05-01T09:19:01.095Z,2.00
2023-05-01T09:20:01.801Z,1.90
2023-05-01T09:21:02.524Z,1.80
2023-05-01T09:22:03.211Z,2.30
2023-05-01T09:23:03.934Z,2.30
2023-05-01T09:24:05.132Z,2.30
2023-05-01T09:25:05.306Z,2.00
2023-05-01T09:26:06.019Z,2.30
2023-05-01T09:27:06.727Z,2.20
2023-05-01T09:28:07.423Z,2.10
2023-05-01T09:29:08.601Z,2.00
2023-05-01T09:30:08.806Z,2.10
2023-05-01T09:31:09.512Z,1.90
2023-05-01T09:32:10.237Z,2.20
2023-05-01T09:33:11.101Z,1.90
2023-05-01T09:34:12.101Z,1.50
2023-05-01T09:35:12.807Z,1.60
2023-05-01T09:36:13.536Z,1.80
2023-05-01T09:37:14.222Z,1.60
2023-05-01T09:38:14.927Z,1.60
2023-05-01T09:39:16.127Z,1.70
2023-05-01T09:40:16.327Z,1.80
2023-05-01T09:41:17.013Z,1.60
2023-05-01T09:42:17.768Z,1.50
2023-05-01T09:43:18.475Z,1.60
2023-05-01T09:44:19.615Z,1.60
2023-05-01T09:45:19.807Z,1.60
2023-05-01T09:46:20.587Z,1.70
2023-05-01T09:47:21.282Z,1.70
2023-05-01T09:48:21.967Z,1.70
2023-05-01T09:49:23.116Z,1.60
2023-05-01T09:50:23.327Z,1.70
2023-05-01T09:51:24.139Z,1.60
2023-05-01T09:52:24.766Z,1.80
2023-05-01T09:53:25.480Z,1.70
2023-05-01T09:54:26.632Z,1.60
2023-05-01T09:55:26.778Z,1.60
2023-05-01T09:56:27.494Z,1.80
2023-05-01T09:57:28.206Z,1.60
2023-05-01T09:58:28.909Z,1.60
2023-05-01T09:59:30.116Z,1.60
2023-05-01T10:00:30.361Z,1.30
2023-05-01T10:01:31.088Z,1.40
2023-05-01T10:02:31.828Z,1.60
2023-05-01T10:03:32.695Z,1.80
2023-05-01T10:04:33.615Z,1.50
2023-05-01T10:05:34.324Z,1.50
2023-05-01T10:06:35.098Z,1.50
2023-05-01T10:07:35.803Z,1.60
2023-05-01T10:08:36.512Z,1.60
2023-05-01T10:09:37.675Z,1.50
2023-05-01T10:10:37.825Z,1.90
2023-05-01T10:11:38.529Z,1.50
2023-05-01T10:12:39.244Z,1.80
2023-05-01T10:13:39.985Z,1.70
2023-05-01T10:14:41.127Z,1.60
2023-05-01T10:15:41.330Z,1.90
2023-05-01T10:16:42.097Z,1.50
2023-05-01T10:17:42.773Z,1.40
2023-05-01T10:18:43.500Z,1.30
2023-05-01T10:19:44.630Z,1.50
2023-05-01T10:20:44.857Z,1.20
2023-05-01T10:21:45.551Z,1.40
2023-05-01T10:22:46.239Z,1.30
2023-05-01T10:23:46.940Z,1.20
2023-05-01T10:24:47.678Z,1.50
2023-05-01T10:25:48.354Z,1.40
2023-05-01T10:26:49.095Z,1.20
2023-05-01T10:27:49.788Z,1.20
2023-05-01T10:28:50.503Z,1.30
2023-05-01T10:29:51.626Z,1.40
2023-05-01T10:30:52.135Z,1.40
2023-05-01T10:31:53.079Z,1.50
2023-05-01T10:32:53.439Z,1.40
2023-05-01T10:33:54.102Z,1.40
2023-05-01T10:34:55.519Z,1.50
2023-05-01T10:35:55.538Z,1.40
2023-05-01T10:36:56.220Z,1.60
2023-05-01T10:37:56.918Z,1.50
2023-05-01T10:38:57.613Z,1.30
2023-05-01T10:39:58.649Z,1.30
2023-05-01T10:40:58.830Z,1.30
2023-05-01T10:41:59.541Z,1.50
2023-05-01T10:43:00.245Z,1.20
2023-05-01T10:44:00.947Z,1.30
2023-05-01T10:45:02.127Z,1.30
2023-05-01T10:46:02.364Z,1.30
2023-05-01T10:47:03.041Z,1.30
2023-05-01T10:48:03.791Z,1.30
2023-05-01T10:49:04.462Z,1.30
2023-05-01T10:50:05.640Z,1.40
2023-05-01T10:51:05.843Z,1.20
2023-05-01T10:52:06.567Z,1.30
2023-05-01T10:53:07.254Z,1.20
2023-05-01T10:54:07.954Z,1.40
2023-05-01T10:55:09.148Z,1.40
2023-05-01T10:56:09.281Z,1.30
2023-05-01T10:57:09.990Z,1.20
2023-05-01T10:58:10.693Z,1.40
2023-05-01T10:59:11.403Z,1.30
2023-05-01T11:00:12.125Z,1.10
2023-05-01T11:01:12.833Z,1.20
2023-05-01T11:02:13.580Z,1.30
2023-05-01T11:03:14.358Z,1.30
2023-05-01T11:04:15.025Z,1.20
2023-05-01T11:05:18.476Z,1.30
2023-05-01T11:06:17.352Z,1.40
2023-05-01T11:07:17.179Z,1.20
2023-05-01T11:08:17.897Z,1.10
2023-05-01T11:09:18.607Z,1.10
2023-05-01T11:10:19.655Z,1.50
2023-05-01T11:11:19.863Z,1.40
2023-05-01T11:12:20.557Z,1.40
2023-05-01T11:13:21.262Z,1.40
2023-05-01T11:14:21.968Z,1.40
2023-05-01T11:15:23.137Z,1.30
2023-05-01T11:16:23.363Z,1.50
2023-05-01T11:17:24.107Z,1.40
2023-05-01T11:18:24.778Z,1.30
2023-05-01T11:19:26.847Z,1.40
2023-05-01T11:20:26.637Z,1.10
2023-05-01T11:21:27.341Z,1.20
2023-05-01T11:22:28.069Z,1.30
2023-05-01T11:23:28.754Z,1.20
2023-05-01T11:24:29.461Z,1.20
2023-05-01T11:25:30.660Z,1.20
2023-05-01T11:26:32.532Z,1.20
2023-05-01T11:27:31.347Z,1.10
2023-05-01T11:28:32.047Z,1.20
2023-05-01T11:29:32.778Z,1.10
2023-05-01T11:30:33.637Z,1.10
2023-05-01T11:31:34.371Z,1.30
2023-05-01T11:32:35.101Z,1.10
2023-05-01T11:33:35.789Z,1.00
2023-05-01T11:34:36.501Z,1.20
2023-05-01T11:35:37.656Z,0.90
2023-05-01T11:36:37.857Z,1.40
2023-05-01T11:37:38.577Z,1.10
2023-05-01T11:38:39.262Z,1.20
2023-05-01T11:39:39.966Z,1.30
2023-05-01T11:40:41.155Z,1.20
2023-05-01T11:41:41.335Z,1.20
2023-05-01T11:42:42.071Z,1.20
2023-05-01T11:43:42.779Z,1.20
2023-05-01T11:44:43.487Z,1.20
2023-05-01T11:45:44.663Z,1.40
2023-05-01T11:46:44.844Z,1.30
2023-05-01T11:47:45.590Z,1.50
2023-05-01T11:48:46.254Z,1.30
2023-05-01T11:49:46.961Z,1.40
2023-05-01T11:50:48.156Z,1.30
2023-05-01T11:51:48.358Z,1.20
2023-05-01T11:52:49.083Z,1.20
2023-05-01T11:53:49.766Z,1.20
2023-05-01T11:54:50.472Z,1.30
2023-05-01T11:55:51.666Z,1.50
2023-05-01T11:56:51.813Z,1.40
2023-05-01T11:57:52.513Z,1.20
2023-05-01T11:58:53.220Z,1.30
2023-05-01T11:59:53.928Z,1.30
2023-05-01T12:00:54.646Z,1.10
2023-05-01T12:01:55.391Z,1.50
2023-05-01T12:02:56.182Z,1.20
2023-05-01T12:03:56.924Z,1.30
2023-05-01T12:04:57.786Z,1.20
2023-05-01T12:05:58.646Z,1.40
2023-05-01T12:06:59.374Z,1.40
2023-05-01T12:08:00.150Z,1.10
2023-05-01T12:09:00.788Z,1.30
2023-05-01T12:10:01.494Z,1.30
2023-05-01T12:11:02.671Z,1.20
2023-05-01T12:12:02.798Z,1.10
2023-05-01T12:13:03.506Z,1.20
2023-05-01T12:14:04.215Z,1.30
2023-05-01T12:15:05.085Z,1.30
2023-05-01T12:16:06.157Z,1.30
2023-05-01T12:17:06.413Z,1.40
2023-05-01T12:18:07.096Z,1.30
2023-05-01T12:19:07.772Z,1.10
2023-05-01T12:20:08.495Z,1.20
2023-05-01T12:21:09.654Z,1.20
2023-05-01T12:22:09.866Z,1.10
2023-05-01T12:23:10.604Z,1.20
2023-05-01T12:24:11.267Z,1.10
2023-05-01T12:25:11.975Z,1.10
2023-05-01T12:26:13.174Z,1.30
2023-05-01T12:27:13.364Z,1.40
2023-05-01T12:28:14.070Z,1.40
2023-05-01T12:29:14.768Z,1.40
2023-05-01T12:30:15.478Z,1.30
2023-05-01T12:31:16.677Z,1.40
2023-05-01T12:32:16.866Z,1.40
2023-05-01T12:33:17.629Z,1.30
2023-05-01T12:34:18.337Z,1.20
2023-05-01T12:35:19.055Z,1.40
2023-05-01T12:36:20.153Z,1.50
2023-05-01T12:37:20.370Z,1.40
2023-05-01T12:38:21.096Z,1.30
2023-05-01T12:39:21.779Z,1.40
2023-05-01T12:40:22.509Z,1.30
2023-05-01T12:41:23.698Z,1.10
2023-05-01T12:42:23.852Z,1.20
2023-05-01T12:43:24.565Z,1.20
2023-05-01T12:44:25.293Z,1.20
2023-05-01T12:45:26.002Z,1.40
2023-05-01T12:46:27.218Z,1.20
2023-05-01T12:47:27.403Z,1.20
2023-05-01T12:48:28.103Z,1.20
2023-05-01T12:49:28.796Z,1.20
2023-05-01T12:50:29.500Z,1.10
2023-05-01T12:51:30.665Z,1.30
2023-05-01T12:52:30.874Z,1.20
2023-05-01T12:53:31.598Z,1.20
2023-05-01T12:54:32.282Z,1.20
2023-05-01T12:55:32.989Z,1.20
2023-05-01T12:56:34.183Z,1.20
2023-05-01T12:57:34.338Z,1.10
2023-05-01T12:58:35.064Z,1.10
2023-05-01T12:59:35.766Z,1.20
2023-05-01T13:00:36.478Z,1.20
2023-05-01T13:01:37.805Z,1.20
2023-05-01T13:02:38.070Z,1.10
2023-05-01T13:03:40.949Z,1.20
2023-05-01T13:04:39.325Z,1.20
2023-05-01T13:05:40.046Z,1.20
2023-05-01T13:06:41.206Z,1.20
2023-05-01T13:07:41.400Z,1.40
2023-05-01T13:08:42.266Z,0.90
2023-05-01T13:09:43.007Z,1.20
2023-05-01T13:10:43.715Z,1.30
2023-05-01T13:11:44.679Z,1.30
2023-05-01T13:12:45.350Z,1.00
2023-05-01T13:13:46.101Z,1.10
2023-05-01T13:14:46.764Z,1.10
2023-05-01T13:15:47.522Z,1.20
2023-05-01T13:16:48.830Z,1.10
2023-05-01T13:17:49.161Z,1.10
2023-05-01T13:18:49.863Z,1.00
2023-05-01T13:19:50.544Z,1.20
2023-05-01T13:20:51.246Z,1.10
2023-05-01T13:21:52.167Z,1.10
2023-05-01T13:22:52.874Z,1.20
2023-05-01T13:23:53.597Z,1.10
2023-05-01T13:24:54.285Z,1.20
2023-05-01T13:25:54.996Z,1.10
2023-05-01T13:26:56.194Z,1.10
2023-05-01T13:27:56.389Z,1.30